sensor_id;sensor_type;location;lat;lon;timestamp;P1;durP1;ratioP1;P2;durP2;ratioP2
65853;SDS011;52627;48.838;2.402;2023-03-01T00:01:39;9.30;;;6.10;;
65853;SDS011;52627;48.838;2.402;2023-03-01T00:04:07;10.40;;;6.20;;
65853;SDS011;52627;48.838;2.402;2023-03-01T00:06:34;11.50;;;6.10;;
65853;SDS011;52627;48.838;2.402;2023-03-01T00:09:02;9.30;;;6.00;;
65853;SDS011;52627;48.838;2.402;2023-03-01T00:11:31;10.60;;;6.20;;
65853;SDS011;52627;48.838;2.402;2023-03-01T00:14:01;10.10;;;6.60;;
65853;SDS011;52627;48.838;2.402;2023-03-01T00:16:32;10.40;;;6.20;;
65853;SDS011;52627;48.838;2.402;2023-03-01T00:19:01;10.30;;;6.30;;
65853;SDS011;52627;48.838;2.402;2023-03-01T00:21:29;8.90;;;6.20;;
65853;SDS011;52627;48.838;2.402;2023-03-01T00:23:57;9.30;;;6.60;;
65853;SDS011;52627;48.838;2.402;2023-03-01T00:26:25;9.80;;;6.20;;
65853;SDS011;52627;48.838;2.402;2023-03-01T00:28:56;11.20;;;6.20;;
65853;SDS011;52627;48.838;2.402;2023-03-01T00:31:29;11.90;;;6.70;;
65853;SDS011;52627;48.838;2.402;2023-03-01T00:34:03;10.20;;;6.50;;
65853;SDS011;52627;48.838;2.402;2023-03-01T00:36:34;11.60;;;7.80;;
65853;SDS011;52627;48.838;2.402;2023-03-01T00:41:32;10.90;;;7.80;;
65853;SDS011;52627;48.838;2.402;2023-03-01T00:44:01;11.00;;;7.10;;
65853;SDS011;52627;48.838;2.402;2023-03-01T00:46:29;10.30;;;7.30;;
65853;SDS011;52627;48.838;2.402;2023-03-01T00:49:01;11.80;;;6.50;;
65853;SDS011;52627;48.838;2.402;2023-03-01T00:51:29;12.10;;;6.90;;
65853;SDS011;52627;48.838;2.402;2023-03-01T00:53:59;11.30;;;6.60;;
65853;SDS011;52627;48.838;2.402;2023-03-01T00:56:28;10.70;;;6.80;;
65853;SDS011;52627;48.838;2.402;2023-03-01T00:58:57;10.20;;;7.10;;
65853;SDS011;52627;48.838;2.402;2023-03-01T01:01:27;12.20;;;8.10;;
65853;SDS011;52627;48.838;2.402;2023-03-01T01:04:04;11.30;;;7.20;;
65853;SDS011;52627;48.838;2.402;2023-03-01T01:06:44;13.60;;;7.10;;
65853;SDS011;52627;48.838;2.402;2023-03-01T01:09:16;10.00;;;6.40;;
65853;SDS011;52627;48.838;2.402;2023-03-01T01:14:14;10.70;;;6.50;;
65853;SDS011;52627;48.838;2.402;2023-03-01T01:16:42;10.10;;;6.70;;
65853;SDS011;52627;48.838;2.402;2023-03-01T01:19:13;13.20;;;7.30;;
65853;SDS011;52627;48.838;2.402;2023-03-01T01:21:41;10.30;;;7.20;;
65853;SDS011;52627;48.838;2.402;2023-03-01T01:24:10;10.90;;;6.60;;
65853;SDS011;52627;48.838;2.402;2023-03-01T01:26:38;9.20;;;6.40;;
65853;SDS011;52627;48.838;2.402;2023-03-01T01:29:06;9.60;;;6.60;;
65853;SDS011;52627;48.838;2.402;2023-03-01T01:31:35;10.50;;;6.70;;
65853;SDS011;52627;48.838;2.402;2023-03-01T01:34:05;10.90;;;7.60;;
65853;SDS011;52627;48.838;2.402;2023-03-01T01:36:34;10.90;;;7.10;;
65853;SDS011;52627;48.838;2.402;2023-03-01T01:39:03;14.40;;;7.00;;
65853;SDS011;52627;48.838;2.402;2023-03-01T01:41:31;11.00;;;6.90;;
65853;SDS011;52627;48.838;2.402;2023-03-01T01:44:14;11.10;;;7.00;;
65853;SDS011;52627;48.838;2.402;2023-03-01T01:49:27;9.40;;;6.70;;
65853;SDS011;52627;48.838;2.402;2023-03-01T01:55:02;9.20;;;6.60;;
65853;SDS011;52627;48.838;2.402;2023-03-01T01:57:45;9.80;;;7.00;;
65853;SDS011;52627;48.838;2.402;2023-03-01T02:00:17;10.00;;;7.40;;
65853;SDS011;52627;48.838;2.402;2023-03-01T02:02:50;12.20;;;7.00;;
65853;SDS011;52627;48.838;2.402;2023-03-01T02:05:39;10.10;;;7.30;;
65853;SDS011;52627;48.838;2.402;2023-03-01T02:08:13;9.80;;;7.70;;
65853;SDS011;52627;48.838;2.402;2023-03-01T02:10:42;12.60;;;7.80;;
65853;SDS011;52627;48.838;2.402;2023-03-01T02:13:10;10.50;;;7.40;;
65853;SDS011;52627;48.838;2.402;2023-03-01T02:15:39;10.10;;;7.80;;
65853;SDS011;52627;48.838;2.402;2023-03-01T02:18:09;12.90;;;7.80;;
65853;SDS011;52627;48.838;2.402;2023-03-01T02:23:44;11.80;;;7.40;;
65853;SDS011;52627;48.838;2.402;2023-03-01T02:28:48;11.90;;;8.20;;
65853;SDS011;52627;48.838;2.402;2023-03-01T02:31:18;11.30;;;7.50;;
65853;SDS011;52627;48.838;2.402;2023-03-01T02:34:07;12.00;;;8.00;;
65853;SDS011;52627;48.838;2.402;2023-03-01T02:36:43;14.20;;;8.30;;
65853;SDS011;52627;48.838;2.402;2023-03-01T02:39:21;12.30;;;7.90;;
65853;SDS011;52627;48.838;2.402;2023-03-01T02:41:54;11.30;;;7.50;;
65853;SDS011;52627;48.838;2.402;2023-03-01T02:44:23;11.90;;;7.80;;
65853;SDS011;52627;48.838;2.402;2023-03-01T02:46:53;12.50;;;8.10;;
65853;SDS011;52627;48.838;2.402;2023-03-01T02:49:31;11.10;;;7.80;;
65853;SDS011;52627;48.838;2.402;2023-03-01T02:52:21;11.80;;;7.90;;
65853;SDS011;52627;48.838;2.402;2023-03-01T02:54:59;10.60;;;7.40;;
65853;SDS011;52627;48.838;2.402;2023-03-01T02:57:31;12.20;;;8.70;;
65853;SDS011;52627;48.838;2.402;2023-03-01T03:00:12;11.00;;;8.00;;
65853;SDS011;52627;48.838;2.402;2023-03-01T03:02:48;12.70;;;8.00;;
65853;SDS011;52627;48.838;2.402;2023-03-01T03:05:20;11.80;;;8.00;;
65853;SDS011;52627;48.838;2.402;2023-03-01T03:07:50;11.80;;;8.20;;
65853;SDS011;52627;48.838;2.402;2023-03-01T03:10:24;11.90;;;8.20;;
65853;SDS011;52627;48.838;2.402;2023-03-01T03:12:59;14.20;;;8.60;;
65853;SDS011;52627;48.838;2.402;2023-03-01T03:17:57;10.60;;;7.90;;
65853;SDS011;52627;48.838;2.402;2023-03-01T03:20:27;13.60;;;8.50;;
65853;SDS011;52627;48.838;2.402;2023-03-01T03:22:56;12.10;;;8.80;;
65853;SDS011;52627;48.838;2.402;2023-03-01T03:25:27;12.10;;;8.30;;
65853;SDS011;52627;48.838;2.402;2023-03-01T03:27:56;11.70;;;7.90;;
65853;SDS011;52627;48.838;2.402;2023-03-01T03:30:30;12.60;;;8.20;;
65853;SDS011;52627;48.838;2.402;2023-03-01T03:32:59;10.80;;;7.80;;
65853;SDS011;52627;48.838;2.402;2023-03-01T03:35:37;13.20;;;8.60;;
65853;SDS011;52627;48.838;2.402;2023-03-01T03:38:09;14.00;;;9.20;;
65853;SDS011;52627;48.838;2.402;2023-03-01T03:40:45;11.70;;;8.50;;
65853;SDS011;52627;48.838;2.402;2023-03-01T03:43:17;13.10;;;8.80;;
65853;SDS011;52627;48.838;2.402;2023-03-01T03:45:50;13.00;;;8.50;;
65853;SDS011;52627;48.838;2.402;2023-03-01T03:48:18;11.40;;;8.20;;
65853;SDS011;52627;48.838;2.402;2023-03-01T03:50:51;11.80;;;8.90;;
65853;SDS011;52627;48.838;2.402;2023-03-01T03:53:22;13.70;;;9.90;;
65853;SDS011;52627;48.838;2.402;2023-03-01T03:55:51;12.20;;;8.40;;
65853;SDS011;52627;48.838;2.402;2023-03-01T03:58:20;13.70;;;9.10;;
65853;SDS011;52627;48.838;2.402;2023-03-01T04:00:52;12.70;;;8.60;;
65853;SDS011;52627;48.838;2.402;2023-03-01T04:03:24;11.80;;;8.70;;
65853;SDS011;52627;48.838;2.402;2023-03-01T04:05:52;13.90;;;8.50;;
65853;SDS011;52627;48.838;2.402;2023-03-01T04:08:22;14.00;;;9.10;;
65853;SDS011;52627;48.838;2.402;2023-03-01T04:10:52;13.10;;;8.60;;
65853;SDS011;52627;48.838;2.402;2023-03-01T04:13:23;14.80;;;8.70;;
65853;SDS011;52627;48.838;2.402;2023-03-01T04:15:54;12.30;;;8.60;;
65853;SDS011;52627;48.838;2.402;2023-03-01T04:18:23;15.70;;;9.10;;
65853;SDS011;52627;48.838;2.402;2023-03-01T04:20:52;14.00;;;10.00;;
65853;SDS011;52627;48.838;2.402;2023-03-01T04:23:22;14.40;;;9.20;;
65853;SDS011;52627;48.838;2.402;2023-03-01T04:25:52;12.90;;;9.40;;
65853;SDS011;52627;48.838;2.402;2023-03-01T04:28:33;14.00;;;9.00;;
65853;SDS011;52627;48.838;2.402;2023-03-01T04:31:07;14.60;;;9.20;;
65853;SDS011;52627;48.838;2.402;2023-03-01T04:33:55;13.40;;;9.40;;
65853;SDS011;52627;48.838;2.402;2023-03-01T04:36:27;13.00;;;9.20;;
65853;SDS011;52627;48.838;2.402;2023-03-01T04:38:56;20.60;;;10.40;;
65853;SDS011;52627;48.838;2.402;2023-03-01T04:41:24;13.10;;;9.00;;
65853;SDS011;52627;48.838;2.402;2023-03-01T04:43:52;14.50;;;9.70;;
65853;SDS011;52627;48.838;2.402;2023-03-01T04:46:20;12.60;;;9.00;;
65853;SDS011;52627;48.838;2.402;2023-03-01T04:48:48;13.90;;;8.90;;
65853;SDS011;52627;48.838;2.402;2023-03-01T04:51:16;14.20;;;9.70;;
65853;SDS011;52627;48.838;2.402;2023-03-01T04:53:44;12.90;;;9.40;;
65853;SDS011;52627;48.838;2.402;2023-03-01T04:56:12;13.00;;;9.30;;
65853;SDS011;52627;48.838;2.402;2023-03-01T04:58:41;12.10;;;8.70;;
65853;SDS011;52627;48.838;2.402;2023-03-01T05:01:14;12.70;;;9.30;;
65853;SDS011;52627;48.838;2.402;2023-03-01T05:03:45;13.50;;;9.30;;
65853;SDS011;52627;48.838;2.402;2023-03-01T05:06:15;13.00;;;9.40;;
65853;SDS011;52627;48.838;2.402;2023-03-01T05:08:44;14.70;;;9.30;;
65853;SDS011;52627;48.838;2.402;2023-03-01T05:11:11;14.70;;;9.70;;
65853;SDS011;52627;48.838;2.402;2023-03-01T05:13:39;16.00;;;10.30;;
65853;SDS011;52627;48.838;2.402;2023-03-01T05:16:08;13.90;;;10.10;;
65853;SDS011;52627;48.838;2.402;2023-03-01T05:18:39;13.90;;;10.10;;
65853;SDS011;52627;48.838;2.402;2023-03-01T05:21:11;13.70;;;9.20;;
65853;SDS011;52627;48.838;2.402;2023-03-01T05:23:39;14.90;;;10.30;;
65853;SDS011;52627;48.838;2.402;2023-03-01T05:26:08;13.20;;;9.80;;
65853;SDS011;52627;48.838;2.402;2023-03-01T05:28:53;14.60;;;9.50;;
65853;SDS011;52627;48.838;2.402;2023-03-01T05:31:26;14.00;;;9.10;;
65853;SDS011;52627;48.838;2.402;2023-03-01T05:33:54;13.70;;;9.50;;
65853;SDS011;52627;48.838;2.402;2023-03-01T05:36:21;16.10;;;9.90;;
65853;SDS011;52627;48.838;2.402;2023-03-01T05:38:49;13.80;;;9.30;;
65853;SDS011;52627;48.838;2.402;2023-03-01T05:41:16;14.20;;;9.30;;
65853;SDS011;52627;48.838;2.402;2023-03-01T05:43:44;12.30;;;9.00;;
65853;SDS011;52627;48.838;2.402;2023-03-01T05:46:12;13.10;;;9.40;;
65853;SDS011;52627;48.838;2.402;2023-03-01T05:48:40;12.70;;;9.30;;
65853;SDS011;52627;48.838;2.402;2023-03-01T05:51:08;15.20;;;9.60;;
65853;SDS011;52627;48.838;2.402;2023-03-01T05:53:35;15.50;;;9.50;;
65853;SDS011;52627;48.838;2.402;2023-03-01T05:56:04;13.30;;;9.30;;
65853;SDS011;52627;48.838;2.402;2023-03-01T05:58:31;13.50;;;10.00;;
65853;SDS011;52627;48.838;2.402;2023-03-01T06:00:59;14.10;;;10.00;;
65853;SDS011;52627;48.838;2.402;2023-03-01T06:03:26;14.10;;;10.00;;
65853;SDS011;52627;48.838;2.402;2023-03-01T06:05:57;14.20;;;10.10;;
65853;SDS011;52627;48.838;2.402;2023-03-01T06:08:25;15.40;;;10.40;;
65853;SDS011;52627;48.838;2.402;2023-03-01T06:10:54;14.30;;;9.50;;
65853;SDS011;52627;48.838;2.402;2023-03-01T06:13:22;13.30;;;10.00;;
65853;SDS011;52627;48.838;2.402;2023-03-01T06:15:51;15.10;;;10.10;;
65853;SDS011;52627;48.838;2.402;2023-03-01T06:18:19;15.40;;;10.20;;
65853;SDS011;52627;48.838;2.402;2023-03-01T06:20:53;15.00;;;9.20;;
65853;SDS011;52627;48.838;2.402;2023-03-01T06:23:22;14.10;;;10.90;;
65853;SDS011;52627;48.838;2.402;2023-03-01T06:25:50;15.80;;;11.50;;
65853;SDS011;52627;48.838;2.402;2023-03-01T06:28:18;16.00;;;10.40;;
65853;SDS011;52627;48.838;2.402;2023-03-01T06:30:45;15.40;;;11.00;;
65853;SDS011;52627;48.838;2.402;2023-03-01T06:33:13;14.60;;;10.70;;
65853;SDS011;52627;48.838;2.402;2023-03-01T06:35:41;16.70;;;11.70;;
65853;SDS011;52627;48.838;2.402;2023-03-01T06:38:08;15.50;;;11.40;;
65853;SDS011;52627;48.838;2.402;2023-03-01T06:40:36;18.00;;;11.80;;
65853;SDS011;52627;48.838;2.402;2023-03-01T06:43:04;15.90;;;11.20;;
65853;SDS011;52627;48.838;2.402;2023-03-01T06:45:31;16.30;;;11.60;;
65853;SDS011;52627;48.838;2.402;2023-03-01T06:48:06;15.70;;;10.80;;
65853;SDS011;52627;48.838;2.402;2023-03-01T06:50:35;16.00;;;12.20;;
65853;SDS011;52627;48.838;2.402;2023-03-01T06:53:03;15.50;;;12.20;;
65853;SDS011;52627;48.838;2.402;2023-03-01T06:55:31;17.00;;;12.40;;
65853;SDS011;52627;48.838;2.402;2023-03-01T06:58:00;18.10;;;12.60;;
65853;SDS011;52627;48.838;2.402;2023-03-01T07:00:28;17.90;;;12.90;;
65853;SDS011;52627;48.838;2.402;2023-03-01T07:03:00;21.30;;;13.90;;
65853;SDS011;52627;48.838;2.402;2023-03-01T07:05:30;18.10;;;12.90;;
65853;SDS011;52627;48.838;2.402;2023-03-01T07:07:57;17.70;;;13.00;;
65853;SDS011;52627;48.838;2.402;2023-03-01T07:10:25;17.80;;;12.90;;
65853;SDS011;52627;48.838;2.402;2023-03-01T07:12:56;18.70;;;13.30;;
65853;SDS011;52627;48.838;2.402;2023-03-01T07:15:25;20.40;;;14.00;;
65853;SDS011;52627;48.838;2.402;2023-03-01T07:17:54;19.00;;;13.10;;
65853;SDS011;52627;48.838;2.402;2023-03-01T07:20:21;18.00;;;13.20;;
65853;SDS011;52627;48.838;2.402;2023-03-01T07:22:52;17.10;;;12.60;;
65853;SDS011;52627;48.838;2.402;2023-03-01T07:25:21;17.30;;;13.30;;
65853;SDS011;52627;48.838;2.402;2023-03-01T07:27:50;20.90;;;14.10;;
65853;SDS011;52627;48.838;2.402;2023-03-01T07:30:18;20.10;;;13.90;;
65853;SDS011;52627;48.838;2.402;2023-03-01T07:32:46;19.20;;;13.40;;
65853;SDS011;52627;48.838;2.402;2023-03-01T07:35:14;20.60;;;13.60;;
65853;SDS011;52627;48.838;2.402;2023-03-01T07:37:42;20.90;;;14.20;;
65853;SDS011;52627;48.838;2.402;2023-03-01T07:40:10;19.80;;;14.00;;
65853;SDS011;52627;48.838;2.402;2023-03-01T07:42:38;19.80;;;14.30;;
65853;SDS011;52627;48.838;2.402;2023-03-01T07:45:06;20.50;;;14.30;;
65853;SDS011;52627;48.838;2.402;2023-03-01T07:47:35;20.90;;;14.70;;
65853;SDS011;52627;48.838;2.402;2023-03-01T07:50:03;17.80;;;13.30;;
65853;SDS011;52627;48.838;2.402;2023-03-01T07:52:31;22.70;;;14.10;;
65853;SDS011;52627;48.838;2.402;2023-03-01T07:54:59;23.50;;;15.70;;
65853;SDS011;52627;48.838;2.402;2023-03-01T07:57:26;21.60;;;14.40;;
65853;SDS011;52627;48.838;2.402;2023-03-01T07:59:53;19.50;;;13.60;;
65853;SDS011;52627;48.838;2.402;2023-03-01T08:02:21;20.60;;;14.40;;
65853;SDS011;52627;48.838;2.402;2023-03-01T08:04:48;22.10;;;13.70;;
65853;SDS011;52627;48.838;2.402;2023-03-01T08:07:16;20.40;;;13.50;;
65853;SDS011;52627;48.838;2.402;2023-03-01T08:09:43;18.90;;;14.10;;
65853;SDS011;52627;48.838;2.402;2023-03-01T08:12:11;18.30;;;13.40;;
65853;SDS011;52627;48.838;2.402;2023-03-01T08:14:38;17.50;;;13.10;;
65853;SDS011;52627;48.838;2.402;2023-03-01T08:17:05;20.70;;;14.10;;
65853;SDS011;52627;48.838;2.402;2023-03-01T08:19:33;20.40;;;14.60;;
65853;SDS011;52627;48.838;2.402;2023-03-01T08:22:02;20.60;;;14.20;;
65853;SDS011;52627;48.838;2.402;2023-03-01T08:24:30;20.00;;;14.40;;
65853;SDS011;52627;48.838;2.402;2023-03-01T08:26:57;21.50;;;13.80;;
65853;SDS011;52627;48.838;2.402;2023-03-01T08:29:25;21.80;;;14.20;;
65853;SDS011;52627;48.838;2.402;2023-03-01T08:31:52;23.20;;;14.70;;
65853;SDS011;52627;48.838;2.402;2023-03-01T08:34:20;22.20;;;14.70;;
65853;SDS011;52627;48.838;2.402;2023-03-01T08:36:47;18.00;;;13.20;;
65853;SDS011;52627;48.838;2.402;2023-03-01T08:39:16;19.50;;;14.50;;
65853;SDS011;52627;48.838;2.402;2023-03-01T08:41:46;20.50;;;13.90;;
65853;SDS011;52627;48.838;2.402;2023-03-01T08:44:15;18.60;;;13.20;;
65853;SDS011;52627;48.838;2.402;2023-03-01T08:46:44;22.90;;;13.90;;
65853;SDS011;52627;48.838;2.402;2023-03-01T08:49:17;20.00;;;13.60;;
65853;SDS011;52627;48.838;2.402;2023-03-01T08:51:46;20.50;;;13.80;;
65853;SDS011;52627;48.838;2.402;2023-03-01T08:54:19;20.90;;;13.80;;
65853;SDS011;52627;48.838;2.402;2023-03-01T08:56:48;20.20;;;14.20;;
65853;SDS011;52627;48.838;2.402;2023-03-01T08:59:17;20.10;;;14.40;;
65853;SDS011;52627;48.838;2.402;2023-03-01T09:01:45;17.60;;;14.10;;
65853;SDS011;52627;48.838;2.402;2023-03-01T09:04:14;18.50;;;13.90;;
65853;SDS011;52627;48.838;2.402;2023-03-01T09:06:42;19.10;;;13.30;;
65853;SDS011;52627;48.838;2.402;2023-03-01T09:09:16;19.70;;;13.60;;
65853;SDS011;52627;48.838;2.402;2023-03-01T09:11:45;21.00;;;14.10;;
65853;SDS011;52627;48.838;2.402;2023-03-01T09:14:13;18.40;;;12.40;;
65853;SDS011;52627;48.838;2.402;2023-03-01T09:16:41;19.00;;;12.80;;
65853;SDS011;52627;48.838;2.402;2023-03-01T09:19:09;16.40;;;12.70;;
65853;SDS011;52627;48.838;2.402;2023-03-01T09:21:38;16.40;;;12.90;;
65853;SDS011;52627;48.838;2.402;2023-03-01T09:24:14;17.00;;;12.40;;
65853;SDS011;52627;48.838;2.402;2023-03-01T09:26:42;18.40;;;12.80;;
65853;SDS011;52627;48.838;2.402;2023-03-01T09:29:15;18.40;;;12.00;;
65853;SDS011;52627;48.838;2.402;2023-03-01T09:31:44;22.00;;;13.50;;
65853;SDS011;52627;48.838;2.402;2023-03-01T09:34:11;18.70;;;12.90;;
65853;SDS011;52627;48.838;2.402;2023-03-01T09:36:42;17.80;;;12.90;;
65853;SDS011;52627;48.838;2.402;2023-03-01T09:39:09;15.40;;;13.00;;
65853;SDS011;52627;48.838;2.402;2023-03-01T09:41:43;19.20;;;12.60;;
65853;SDS011;52627;48.838;2.402;2023-03-01T09:46:57;16.90;;;13.10;;
65853;SDS011;52627;48.838;2.402;2023-03-01T09:49:36;16.00;;;12.20;;
65853;SDS011;52627;48.838;2.402;2023-03-01T09:55:11;17.10;;;13.00;;
65853;SDS011;52627;48.838;2.402;2023-03-01T09:57:55;16.20;;;12.90;;
65853;SDS011;52627;48.838;2.402;2023-03-01T10:00:39;17.00;;;12.40;;
65853;SDS011;52627;48.838;2.402;2023-03-01T10:03:34;15.40;;;12.70;;
65853;SDS011;52627;48.838;2.402;2023-03-01T10:08:56;13.90;;;12.40;;
65853;SDS011;52627;48.838;2.402;2023-03-01T10:14:35;17.70;;;12.80;;
65853;SDS011;52627;48.838;2.402;2023-03-01T10:17:12;18.60;;;13.40;;
65853;SDS011;52627;48.838;2.402;2023-03-01T10:19:47;16.10;;;13.20;;
65853;SDS011;52627;48.838;2.402;2023-03-01T10:22:19;16.50;;;12.40;;
65853;SDS011;52627;48.838;2.402;2023-03-01T10:24:53;14.80;;;12.30;;
65853;SDS011;52627;48.838;2.402;2023-03-01T10:27:26;14.20;;;12.70;;
65853;SDS011;52627;48.838;2.402;2023-03-01T10:30:16;14.50;;;12.60;;
65853;SDS011;52627;48.838;2.402;2023-03-01T10:32:49;16.80;;;13.20;;
65853;SDS011;52627;48.838;2.402;2023-03-01T10:35:24;16.20;;;12.90;;
65853;SDS011;52627;48.838;2.402;2023-03-01T10:38:06;14.70;;;12.30;;
65853;SDS011;52627;48.838;2.402;2023-03-01T10:40:50;15.30;;;12.70;;
65853;SDS011;52627;48.838;2.402;2023-03-01T10:43:42;17.60;;;12.90;;
65853;SDS011;52627;48.838;2.402;2023-03-01T10:46:44;15.10;;;12.70;;
65853;SDS011;52627;48.838;2.402;2023-03-01T10:49:20;17.20;;;12.90;;
65853;SDS011;52627;48.838;2.402;2023-03-01T10:51:51;16.20;;;13.80;;
65853;SDS011;52627;48.838;2.402;2023-03-01T10:54:31;18.60;;;13.20;;
65853;SDS011;52627;48.838;2.402;2023-03-01T10:57:02;14.80;;;13.00;;
65853;SDS011;52627;48.838;2.402;2023-03-01T10:59:35;18.40;;;14.20;;
65853;SDS011;52627;48.838;2.402;2023-03-01T11:02:18;15.80;;;12.70;;
65853;SDS011;52627;48.838;2.402;2023-03-01T11:05:22;16.80;;;13.60;;
65853;SDS011;52627;48.838;2.402;2023-03-01T11:07:53;17.00;;;13.40;;
65853;SDS011;52627;48.838;2.402;2023-03-01T11:10:27;19.50;;;13.80;;
65853;SDS011;52627;48.838;2.402;2023-03-01T11:13:20;16.90;;;13.00;;
65853;SDS011;52627;48.838;2.402;2023-03-01T11:16:06;14.70;;;12.30;;
65853;SDS011;52627;48.838;2.402;2023-03-01T11:18:35;15.80;;;12.50;;
65853;SDS011;52627;48.838;2.402;2023-03-01T11:21:15;17.70;;;14.30;;
65853;SDS011;52627;48.838;2.402;2023-03-01T11:23:45;18.20;;;13.80;;
65853;SDS011;52627;48.838;2.402;2023-03-01T11:26:17;16.50;;;13.10;;
65853;SDS011;52627;48.838;2.402;2023-03-01T11:28:50;18.20;;;13.70;;
65853;SDS011;52627;48.838;2.402;2023-03-01T11:31:21;17.60;;;13.50;;
65853;SDS011;52627;48.838;2.402;2023-03-01T11:34:12;17.60;;;13.30;;
65853;SDS011;52627;48.838;2.402;2023-03-01T11:36:48;18.10;;;13.70;;
65853;SDS011;52627;48.838;2.402;2023-03-01T11:42:06;16.30;;;13.20;;
65853;SDS011;52627;48.838;2.402;2023-03-01T11:44:48;17.80;;;13.40;;
65853;SDS011;52627;48.838;2.402;2023-03-01T11:47:25;21.10;;;13.60;;
65853;SDS011;52627;48.838;2.402;2023-03-01T11:50:20;16.70;;;14.00;;
65853;SDS011;52627;48.838;2.402;2023-03-01T11:53:13;17.20;;;13.20;;
65853;SDS011;52627;48.838;2.402;2023-03-01T11:56:01;16.70;;;12.80;;
65853;SDS011;52627;48.838;2.402;2023-03-01T11:59:02;15.30;;;12.30;;
65853;SDS011;52627;48.838;2.402;2023-03-01T12:17:10;16.30;;;12.30;;
65853;SDS011;52627;48.838;2.402;2023-03-01T12:20:09;16.70;;;12.40;;
65853;SDS011;52627;48.838;2.402;2023-03-01T12:28:50;17.00;;;13.10;;
65853;SDS011;52627;48.838;2.402;2023-03-01T12:37:15;16.60;;;13.00;;
65853;SDS011;52627;48.838;2.402;2023-03-01T12:46:18;16.30;;;13.40;;
65853;SDS011;52627;48.838;2.402;2023-03-01T12:51:43;16.30;;;13.20;;
65853;SDS011;52627;48.838;2.402;2023-03-01T12:54:16;16.40;;;12.90;;
65853;SDS011;52627;48.838;2.402;2023-03-01T13:00:33;18.10;;;13.40;;
65853;SDS011;52627;48.838;2.402;2023-03-01T13:06:12;16.00;;;13.60;;
65853;SDS011;52627;48.838;2.402;2023-03-01T13:09:23;16.20;;;13.20;;
65853;SDS011;52627;48.838;2.402;2023-03-01T13:11:57;18.10;;;13.10;;
65853;SDS011;52627;48.838;2.402;2023-03-01T13:16:53;16.00;;;12.90;;
65853;SDS011;52627;48.838;2.402;2023-03-01T13:19:24;17.90;;;13.80;;
65853;SDS011;52627;48.838;2.402;2023-03-01T13:21:54;17.10;;;12.80;;
65853;SDS011;52627;48.838;2.402;2023-03-01T13:24:37;16.30;;;13.50;;
65853;SDS011;52627;48.838;2.402;2023-03-01T13:29:54;17.70;;;12.80;;
65853;SDS011;52627;48.838;2.402;2023-03-01T13:32:34;15.30;;;12.60;;
65853;SDS011;52627;48.838;2.402;2023-03-01T13:37:42;19.70;;;13.20;;
65853;SDS011;52627;48.838;2.402;2023-03-01T13:42:51;17.20;;;14.50;;
65853;SDS011;52627;48.838;2.402;2023-03-01T13:45:42;16.90;;;12.60;;
65853;SDS011;52627;48.838;2.402;2023-03-01T13:48:25;19.40;;;13.60;;
65853;SDS011;52627;48.838;2.402;2023-03-01T13:51:13;17.60;;;13.30;;
65853;SDS011;52627;48.838;2.402;2023-03-01T13:53:45;15.30;;;12.70;;
65853;SDS011;52627;48.838;2.402;2023-03-01T13:56:19;16.40;;;13.30;;
65853;SDS011;52627;48.838;2.402;2023-03-01T13:58:52;17.90;;;13.90;;
65853;SDS011;52627;48.838;2.402;2023-03-01T14:01:34;18.90;;;13.80;;
65853;SDS011;52627;48.838;2.402;2023-03-01T14:04:20;17.30;;;13.00;;
65853;SDS011;52627;48.838;2.402;2023-03-01T14:06:48;17.90;;;12.80;;
65853;SDS011;52627;48.838;2.402;2023-03-01T14:09:25;15.40;;;12.10;;
65853;SDS011;52627;48.838;2.402;2023-03-01T14:12:05;15.70;;;12.60;;
65853;SDS011;52627;48.838;2.402;2023-03-01T14:15:19;16.00;;;12.00;;
65853;SDS011;52627;48.838;2.402;2023-03-01T14:17:57;15.70;;;12.20;;
65853;SDS011;52627;48.838;2.402;2023-03-01T14:20:29;17.10;;;12.80;;
65853;SDS011;52627;48.838;2.402;2023-03-01T14:22:59;18.50;;;12.40;;
65853;SDS011;52627;48.838;2.402;2023-03-01T14:25:33;17.40;;;12.70;;
65853;SDS011;52627;48.838;2.402;2023-03-01T14:30:43;17.70;;;12.80;;
65853;SDS011;52627;48.838;2.402;2023-03-01T14:35:59;18.90;;;13.50;;
65853;SDS011;52627;48.838;2.402;2023-03-01T14:38:36;17.80;;;13.50;;
65853;SDS011;52627;48.838;2.402;2023-03-01T14:41:14;17.80;;;13.10;;
65853;SDS011;52627;48.838;2.402;2023-03-01T14:43:52;16.60;;;12.50;;
65853;SDS011;52627;48.838;2.402;2023-03-01T14:46:26;16.40;;;12.10;;
65853;SDS011;52627;48.838;2.402;2023-03-01T14:49:02;19.30;;;14.00;;
65853;SDS011;52627;48.838;2.402;2023-03-01T14:51:40;14.80;;;12.60;;
65853;SDS011;52627;48.838;2.402;2023-03-01T14:54:23;18.00;;;12.80;;
65853;SDS011;52627;48.838;2.402;2023-03-01T14:56:54;18.70;;;13.80;;
65853;SDS011;52627;48.838;2.402;2023-03-01T14:59:28;17.20;;;12.60;;
65853;SDS011;52627;48.838;2.402;2023-03-01T15:01:57;18.80;;;13.10;;
65853;SDS011;52627;48.838;2.402;2023-03-01T15:04:26;18.20;;;13.00;;
65853;SDS011;52627;48.838;2.402;2023-03-01T15:06:55;17.90;;;13.30;;
65853;SDS011;52627;48.838;2.402;2023-03-01T15:09:34;19.00;;;14.20;;
65853;SDS011;52627;48.838;2.402;2023-03-01T15:14:57;20.90;;;13.50;;
65853;SDS011;52627;48.838;2.402;2023-03-01T15:17:34;18.00;;;13.10;;
65853;SDS011;52627;48.838;2.402;2023-03-01T15:20:17;19.40;;;13.40;;
65853;SDS011;52627;48.838;2.402;2023-03-01T15:22:48;19.50;;;14.00;;
65853;SDS011;52627;48.838;2.402;2023-03-01T15:25:21;17.40;;;12.80;;
65853;SDS011;52627;48.838;2.402;2023-03-01T15:27:52;18.60;;;13.00;;
65853;SDS011;52627;48.838;2.402;2023-03-01T15:30:27;19.50;;;13.90;;
65853;SDS011;52627;48.838;2.402;2023-03-01T15:33:39;17.30;;;12.80;;
65853;SDS011;52627;48.838;2.402;2023-03-01T15:36:40;18.80;;;14.20;;
65853;SDS011;52627;48.838;2.402;2023-03-01T15:39:31;22.40;;;14.80;;
65853;SDS011;52627;48.838;2.402;2023-03-01T15:42:08;19.10;;;14.60;;
65853;SDS011;52627;48.838;2.402;2023-03-01T15:44:41;21.60;;;15.60;;
65853;SDS011;52627;48.838;2.402;2023-03-01T15:47:28;19.30;;;13.40;;
65853;SDS011;52627;48.838;2.402;2023-03-01T15:49:58;20.40;;;14.40;;
65853;SDS011;52627;48.838;2.402;2023-03-01T15:52:30;20.50;;;13.80;;
65853;SDS011;52627;48.838;2.402;2023-03-01T15:55:24;18.70;;;13.60;;
65853;SDS011;52627;48.838;2.402;2023-03-01T15:57:59;18.50;;;13.20;;
65853;SDS011;52627;48.838;2.402;2023-03-01T16:00:28;19.90;;;13.20;;
65853;SDS011;52627;48.838;2.402;2023-03-01T16:02:56;20.10;;;13.80;;
65853;SDS011;52627;48.838;2.402;2023-03-01T16:05:29;17.00;;;13.20;;
65853;SDS011;52627;48.838;2.402;2023-03-01T16:08:02;18.40;;;13.40;;
65853;SDS011;52627;48.838;2.402;2023-03-01T16:10:30;18.40;;;13.50;;
65853;SDS011;52627;48.838;2.402;2023-03-01T16:12:58;20.20;;;14.00;;
65853;SDS011;52627;48.838;2.402;2023-03-01T16:15:29;17.90;;;13.40;;
65853;SDS011;52627;48.838;2.402;2023-03-01T16:17:59;18.30;;;13.40;;
65853;SDS011;52627;48.838;2.402;2023-03-01T16:20:28;18.20;;;12.50;;
65853;SDS011;52627;48.838;2.402;2023-03-01T16:23:01;18.90;;;13.30;;
65853;SDS011;52627;48.838;2.402;2023-03-01T16:25:31;20.70;;;13.90;;
65853;SDS011;52627;48.838;2.402;2023-03-01T16:27:59;16.90;;;12.70;;
65853;SDS011;52627;48.838;2.402;2023-03-01T16:30:31;18.80;;;12.50;;
65853;SDS011;52627;48.838;2.402;2023-03-01T16:32:58;19.20;;;12.70;;
65853;SDS011;52627;48.838;2.402;2023-03-01T16:35:26;17.30;;;11.80;;